Time;durP1;ratioP1;P1;durP2;ratioP2;P2;SDS_P1;SDS_P2;PMS_P1;PMS_P2;Temp;Humidity;BMP_temperature;BMP_pressure;BME280_temperature;BME280_humidity;BME280_pressure;Samples;Min_cycle;Max_cycle;Signal;HPM_P1;HPM_P2
2023/05/07 00:01:46;;;;;;;17.80;15.93;;;;;;;;;;4965665;28;20221;-85
2023/05/07 00:04:11;;;;;;;16.50;14.80;;;;;;;;;;4958994;28;20237;-84
2023/05/07 00:06:37;;;;;;;16.60;14.83;;;;;;;;;;4967414;28;20225;-87
2023/05/07 00:09:03;;;;;;;16.67;14.97;;;;;;;;;;4974304;28;20212;-86
2023/05/07 00:11:29;;;;;;;16.20;14.60;;;;;;;;;;4943950;28;20287;-86
2023/05/07 00:13:54;;;;;;;15.63;14.13;;;;;;;;;;4965864;28;20222;-85
2023/05/07 00:16:20;;;;;;;14.50;13.00;;;;;;;;;;4950506;28;20675;-88
2023/05/07 00:18:47;;;;;;;15.00;13.60;;;;;;;;;;4980918;28;20221;-86
2023/05/07 00:21:13;;;;;;;16.33;13.47;;;;;;;;;;4963477;28;20240;-86
2023/05/07 00:23:38;;;;;;;13.70;12.40;;;;;;;;;;4963173;28;20272;-88
2023/05/07 00:26:06;;;;;;;14.50;13.10;;;;;;;;;;4958655;28;20221;-87
2023/05/07 00:28:32;;;;;;;15.00;13.53;;;;;;;;;;4974110;28;20218;-88
2023/05/07 00:30:57;;;;;;;14.00;12.70;;;;;;;;;;4943970;28;20241;-88
2023/05/07 00:33:23;;;;;;;14.40;12.73;;;;;;;;;;4985995;28;20589;-87
2023/05/07 00:35:48;;;;;;;13.57;12.27;;;;;;;;;;4966157;28;20240;-85
2023/05/07 00:38:17;;;;;;;12.53;11.27;;;;;;;;;;4972204;28;20225;-87
2023/05/07 00:40:47;;;;;;;13.07;11.67;;;;;;;;;;4963958;28;20643;-87
2023/05/07 00:43:12;;;;;;;13.43;11.93;;;;;;;;;;4970186;28;20307;-87
2023/05/07 00:45:38;;;;;;;12.60;11.40;;;;;;;;;;4968476;28;20231;-87
2023/05/07 00:48:03;;;;;;;11.93;10.77;;;;;;;;;;4979366;28;20777;-86
2023/05/07 00:50:31;;;;;;;12.43;10.83;;;;;;;;;;4965764;28;20227;-89
2023/05/07 00:53:03;;;;;;;11.80;10.67;;;;;;;;;;4958305;28;20233;-87
2023/05/07 00:55:29;;;;;;;12.53;10.00;;;;;;;;;;4970047;28;20271;-90
2023/05/07 00:57:54;;;;;;;11.27;10.03;;;;;;;;;;4952411;28;20226;-87
2023/05/07 01:00:22;;;;;;;11.17;10.13;;;;;;;;;;4942399;28;20244;-86
2023/05/07 01:02:48;;;;;;;10.47;9.57;;;;;;;;;;4944480;28;20236;-86
2023/05/07 01:05:15;;;;;;;10.87;9.97;;;;;;;;;;4946954;28;20256;-87
2023/05/07 01:07:41;;;;;;;10.33;9.37;;;;;;;;;;4967058;28;20225;-86
2023/05/07 01:10:09;;;;;;;10.33;9.27;;;;;;;;;;4966660;28;20232;-86
2023/05/07 01:12:35;;;;;;;11.27;9.70;;;;;;;;;;4966971;28;20732;-88
2023/05/07 01:15:03;;;;;;;9.80;9.00;;;;;;;;;;4954058;28;20222;-86
2023/05/07 01:17:31;;;;;;;10.10;9.20;;;;;;;;;;5011577;28;20225;-86
2023/05/07 01:19:57;;;;;;;10.33;9.33;;;;;;;;;;4976525;28;20236;-88
2023/05/07 01:22:36;;;;;;;9.90;9.00;;;;;;;;;;4967904;28;20586;-86
2023/05/07 01:25:02;;;;;;;10.63;9.73;;;;;;;;;;4992204;28;20287;-87
2023/05/07 01:27:29;;;;;;;10.97;10.07;;;;;;;;;;4964609;28;20222;-88
2023/05/07 01:29:57;;;;;;;9.67;8.83;;;;;;;;;;4967723;28;20597;-88
2023/05/07 01:32:47;;;;;;;9.97;9.07;;;;;;;;;;4965604;28;20237;-87
2023/05/07 01:35:16;;;;;;;10.43;9.63;;;;;;;;;;4996722;28;20222;-87
2023/05/07 01:37:42;;;;;;;10.37;9.37;;;;;;;;;;4945581;28;20217;-88
2023/05/07 01:40:08;;;;;;;10.20;9.30;;;;;;;;;;4952034;28;20753;-85
2023/05/07 01:42:33;;;;;;;10.13;9.00;;;;;;;;;;4949312;28;20280;-86
2023/05/07 01:44:59;;;;;;;10.67;9.57;;;;;;;;;;4961253;28;20228;-86
2023/05/07 01:47:25;;;;;;;9.27;8.57;;;;;;;;;;4945350;28;20228;-86
2023/05/07 01:49:55;;;;;;;9.10;8.40;;;;;;;;;;4954698;28;20225;-87
2023/05/07 01:52:21;;;;;;;10.33;9.30;;;;;;;;;;4966585;28;20252;-88
2023/05/07 01:54:49;;;;;;;9.97;9.07;;;;;;;;;;4965400;28;20875;-86
2023/05/07 01:57:24;;;;;;;10.60;9.70;;;;;;;;;;4965042;28;20288;-85
2023/05/07 01:59:50;;;;;;;10.10;9.20;;;;;;;;;;4971032;28;20234;-87
2023/05/07 02:02:15;;;;;;;9.90;9.10;;;;;;;;;;4949293;28;20275;-86
2023/05/07 02:04:43;;;;;;;10.60;9.70;;;;;;;;;;4985076;28;20305;-84
2023/05/07 02:07:09;;;;;;;10.77;9.77;;;;;;;;;;4985263;28;20217;-86
2023/05/07 02:09:35;;;;;;;10.47;9.57;;;;;;;;;;4962336;28;20260;-87
2023/05/07 02:12:01;;;;;;;11.00;10.00;;;;;;;;;;4979070;28;20874;-88
2023/05/07 02:14:29;;;;;;;10.53;9.53;;;;;;;;;;4978258;28;20221;-84
2023/05/07 02:16:55;;;;;;;10.83;9.93;;;;;;;;;;4964885;28;21270;-86
2023/05/07 02:19:21;;;;;;;10.10;9.20;;;;;;;;;;4984518;28;20239;-86
2023/05/07 02:21:47;;;;;;;11.10;10.00;;;;;;;;;;4976072;28;20975;-86
2023/05/07 02:24:13;;;;;;;10.77;9.77;;;;;;;;;;4964551;28;20274;-87
2023/05/07 02:26:41;;;;;;;10.73;9.83;;;;;;;;;;4976115;28;20233;-87
2023/05/07 02:29:07;;;;;;;10.67;9.77;;;;;;;;;;4963721;28;20218;-87
2023/05/07 02:31:35;;;;;;;11.23;10.23;;;;;;;;;;4980327;28;20600;-86
2023/05/07 02:34:03;;;;;;;10.90;9.90;;;;;;;;;;4957723;28;20215;-85
2023/05/07 02:36:29;;;;;;;11.07;10.07;;;;;;;;;;4951080;28;20228;-87
2023/05/07 02:39:09;;;;;;;11.20;10.23;;;;;;;;;;4979669;28;20224;-85
2023/05/07 02:41:35;;;;;;;11.20;10.30;;;;;;;;;;4976294;28;20218;-85
2023/05/07 02:44:00;;;;;;;11.93;10.93;;;;;;;;;;4970355;28;20283;-84
2023/05/07 02:46:26;;;;;;;12.90;11.70;;;;;;;;;;4986988;28;20278;-84
2023/05/07 02:48:59;;;;;;;11.80;10.70;;;;;;;;;;4987364;28;20624;-86
2023/05/07 02:51:25;;;;;;;11.80;10.77;;;;;;;;;;4971801;28;20239;-89
2023/05/07 02:53:51;;;;;;;12.13;11.03;;;;;;;;;;4984387;28;20792;-89
2023/05/07 02:56:17;;;;;;;12.83;11.63;;;;;;;;;;4982038;28;20234;-88
2023/05/07 02:58:45;;;;;;;11.30;10.20;;;;;;;;;;4986587;28;20239;-87
2023/05/07 03:01:13;;;;;;;12.27;11.27;;;;;;;;;;4984183;28;20248;-87
2023/05/07 03:04:00;;;;;;;12.00;11.00;;;;;;;;;;4992131;28;20753;-87
2023/05/07 03:06:27;;;;;;;11.90;10.80;;;;;;;;;;4991022;28;20226;-87
2023/05/07 03:08:54;;;;;;;12.43;11.23;;;;;;;;;;4972777;28;20261;-86
2023/05/07 03:11:20;;;;;;;11.80;10.70;;;;;;;;;;4965255;28;20313;-86
2023/05/07 03:13:49;;;;;;;12.97;11.83;;;;;;;;;;4984070;28;20222;-87
2023/05/07 03:16:21;;;;;;;12.27;11.17;;;;;;;;;;4968317;28;20213;-87
2023/05/07 03:18:49;;;;;;;11.73;10.73;;;;;;;;;;4982474;28;20280;-87
2023/05/07 03:21:14;;;;;;;11.90;11.00;;;;;;;;;;4963124;28;20214;-88
2023/05/07 03:23:42;;;;;;;12.87;11.67;;;;;;;;;;4971292;28;20214;-89
2023/05/07 03:26:08;;;;;;;12.00;10.90;;;;;;;;;;4960004;28;20229;-87
2023/05/07 03:28:33;;;;;;;12.40;11.40;;;;;;;;;;4988966;28;20256;-86
2023/05/07 03:31:08;;;;;;;12.33;11.30;;;;;;;;;;4972222;28;20303;-87
2023/05/07 03:33:34;;;;;;;12.77;11.67;;;;;;;;;;4966554;28;20220;-84
2023/05/07 03:36:00;;;;;;;12.27;11.27;;;;;;;;;;4949434;28;20213;-88
2023/05/07 03:38:27;;;;;;;12.50;11.40;;;;;;;;;;4968512;28;20213;-89
2023/05/07 03:40:55;;;;;;;12.33;11.33;;;;;;;;;;4950878;28;20226;-86
2023/05/07 03:43:23;;;;;;;12.13;11.23;;;;;;;;;;4972777;28;20244;-88
2023/05/07 03:45:57;;;;;;;12.60;11.40;;;;;;;;;;4969528;28;21018;-87
2023/05/07 03:48:25;;;;;;;11.93;10.83;;;;;;;;;;4964117;28;20589;-87
2023/05/07 03:50:56;;;;;;;12.33;11.30;;;;;;;;;;4978773;28;20222;-89
2023/05/07 03:53:29;;;;;;;11.67;10.67;;;;;;;;;;4975345;28;20217;-88
2023/05/07 03:55:57;;;;;;;11.53;10.53;;;;;;;;;;4989879;28;20232;-86
2023/05/07 03:58:29;;;;;;;11.07;10.17;;;;;;;;;;4979726;28;20222;-88
2023/05/07 04:00:58;;;;;;;10.20;9.40;;;;;;;;;;4990099;28;20225;-87
2023/05/07 04:03:27;;;;;;;10.00;9.10;;;;;;;;;;4967126;28;20218;-87
2023/05/07 04:05:55;;;;;;;9.47;8.67;;;;;;;;;;4953074;28;20222;-88
2023/05/07 04:08:23;;;;;;;9.27;8.57;;;;;;;;;;4952118;28;20715;-88
2023/05/07 04:10:56;;;;;;;9.07;8.37;;;;;;;;;;4981498;28;20245;-87
2023/05/07 04:13:26;;;;;;;9.20;8.40;;;;;;;;;;4963874;28;20232;-87
2023/05/07 04:15:52;;;;;;;9.20;8.43;;;;;;;;;;4963124;28;20221;-88
2023/05/07 04:18:21;;;;;;;8.80;8.10;;;;;;;;;;4967886;28;20597;-88
2023/05/07 04:20:51;;;;;;;9.13;8.43;;;;;;;;;;4980036;28;20217;-87
2023/05/07 04:23:20;;;;;;;8.33;7.57;;;;;;;;;;4976752;28;20238;-87
2023/05/07 04:25:46;;;;;;;8.77;8.00;;;;;;;;;;4980903;28;20232;-88
2023/05/07 04:28:22;;;;;;;8.33;7.73;;;;;;;;;;4960238;28;20228;-87
2023/05/07 04:30:51;;;;;;;9.30;8.50;;;;;;;;;;4981095;28;20642;-88
2023/05/07 04:33:17;;;;;;;8.70;7.90;;;;;;;;;;4965992;28;20221;-88
2023/05/07 04:35:44;;;;;;;8.80;8.00;;;;;;;;;;4965862;28;20229;-85
2023/05/07 04:38:10;;;;;;;8.73;8.03;;;;;;;;;;4975584;28;20571;-87
2023/05/07 04:40:37;;;;;;;9.20;8.50;;;;;;;;;;4960085;28;20221;-88
2023/05/07 04:43:09;;;;;;;8.70;8.00;;;;;;;;;;4975815;28;20227;-87
2023/05/07 04:45:41;;;;;;;8.83;8.03;;;;;;;;;;4969208;28;20595;-86
2023/05/07 04:48:09;;;;;;;8.97;8.07;;;;;;;;;;4961289;28;20222;-89
2023/05/07 04:50:37;;;;;;;9.37;8.47;;;;;;;;;;4992812;28;20720;-84
2023/05/07 04:53:05;;;;;;;9.13;8.43;;;;;;;;;;4976134;28;20909;-88
2023/05/07 04:55:30;;;;;;;9.03;8.27;;;;;;;;;;4967709;28;20296;-89
2023/05/07 04:58:00;;;;;;;8.63;7.80;;;;;;;;;;4991219;28;20687;-87
2023/05/07 05:00:31;;;;;;;8.63;7.80;;;;;;;;;;4967682;28;20248;-88
2023/05/07 05:02:57;;;;;;;8.90;8.10;;;;;;;;;;4967953;28;20229;-86
2023/05/07 05:05:24;;;;;;;8.10;7.43;;;;;;;;;;5001333;28;20217;-86
2023/05/07 05:07:52;;;;;;;7.90;7.30;;;;;;;;;;4980676;28;20229;-89
2023/05/07 05:10:26;;;;;;;7.93;7.33;;;;;;;;;;4994245;28;20226;-88
2023/05/07 05:12:55;;;;;;;8.13;7.43;;;;;;;;;;5018817;28;20212;-86
2023/05/07 05:15:25;;;;;;;8.20;7.50;;;;;;;;;;4996453;28;20282;-85
2023/05/07 05:17:51;;;;;;;8.07;7.37;;;;;;;;;;4999350;28;20225;-84
2023/05/07 05:20:17;;;;;;;8.33;7.63;;;;;;;;;;4996649;28;20229;-86
2023/05/07 05:22:43;;;;;;;8.13;7.43;;;;;;;;;;5015938;28;20263;-88
2023/05/07 05:25:12;;;;;;;7.80;7.20;;;;;;;;;;4967889;28;20305;-86
2023/05/07 05:27:38;;;;;;;8.00;7.37;;;;;;;;;;5015055;28;20216;-88
2023/05/07 05:30:05;;;;;;;8.43;7.73;;;;;;;;;;4999735;28;20244;-85
2023/05/07 05:32:34;;;;;;;7.87;7.10;;;;;;;;;;4973704;28;20225;-88
2023/05/07 05:35:04;;;;;;;6.97;6.37;;;;;;;;;;4980683;28;20213;-88
2023/05/07 05:37:31;;;;;;;6.80;6.30;;;;;;;;;;4979661;28;20227;-86
2023/05/07 05:39:58;;;;;;;7.80;7.20;;;;;;;;;;4966762;28;20225;-87
2023/05/07 05:42:25;;;;;;;7.20;6.60;;;;;;;;;;4976906;28;20209;-86
2023/05/07 05:44:50;;;;;;;7.23;6.63;;;;;;;;;;4990106;28;20286;-87
2023/05/07 05:47:16;;;;;;;7.40;6.80;;;;;;;;;;4960918;28;20225;-89
2023/05/07 05:49:44;;;;;;;7.37;6.77;;;;;;;;;;4984678;28;20274;-87
2023/05/07 05:52:14;;;;;;;7.80;7.20;;;;;;;;;;4950984;28;20241;-87
2023/05/07 05:54:39;;;;;;;7.60;7.00;;;;;;;;;;4995382;28;20211;-86
2023/05/07 05:57:05;;;;;;;8.03;7.33;;;;;;;;;;4968478;28;20213;-89
2023/05/07 05:59:31;;;;;;;7.73;7.07;;;;;;;;;;4974897;28;20221;-86
2023/05/07 06:01:57;;;;;;;7.90;7.20;;;;;;;;;;4954777;28;20659;-88
2023/05/07 06:04:23;;;;;;;8.13;7.43;;;;;;;;;;4982873;28;20225;-87
2023/05/07 06:06:48;;;;;;;8.60;7.90;;;;;;;;;;4960925;28;20228;-86
2023/05/07 06:09:17;;;;;;;8.63;7.93;;;;;;;;;;4989659;28;20213;-85
2023/05/07 06:11:44;;;;;;;8.83;8.00;;;;;;;;;;4996338;28;20224;-87
2023/05/07 06:14:11;;;;;;;8.67;7.87;;;;;;;;;;4991280;28;20230;-86
2023/05/07 06:16:37;;;;;;;8.97;8.27;;;;;;;;;;4963952;28;20222;-86
2023/05/07 06:19:07;;;;;;;9.60;8.57;;;;;;;;;;4958536;28;20222;-86
2023/05/07 06:21:33;;;;;;;10.10;8.70;;;;;;;;;;4968202;28;20234;-86
2023/05/07 06:23:59;;;;;;;9.63;8.67;;;;;;;;;;4981206;28;20210;-87
2023/05/07 06:26:25;;;;;;;9.70;8.90;;;;;;;;;;4977189;28;20255;-88
2023/05/07 06:28:51;;;;;;;9.60;8.70;;;;;;;;;;5002194;28;20229;-88
2023/05/07 06:31:22;;;;;;;9.73;8.93;;;;;;;;;;4950116;28;20287;-86
2023/05/07 06:34:02;;;;;;;9.70;8.80;;;;;;;;;;4989465;28;20273;-87
2023/05/07 06:36:35;;;;;;;10.20;9.30;;;;;;;;;;4966868;28;20221;-87
2023/05/07 06:39:08;;;;;;;9.53;8.73;;;;;;;;;;4970512;28;20213;-86
2023/05/07 06:41:35;;;;;;;9.00;8.30;;;;;;;;;;4954561;28;20217;-88
2023/05/07 06:44:06;;;;;;;8.87;8.10;;;;;;;;;;4986693;28;20210;-88
2023/05/07 06:46:43;;;;;;;8.97;8.17;;;;;;;;;;4968035;28;20679;-88
2023/05/07 06:49:12;;;;;;;9.00;8.20;;;;;;;;;;4946958;28;20305;-86
2023/05/07 06:51:40;;;;;;;8.47;7.70;;;;;;;;;;4983267;28;20237;-86
2023/05/07 06:54:05;;;;;;;8.93;8.13;;;;;;;;;;4977291;28;20222;-85
2023/05/07 06:56:35;;;;;;;8.43;7.53;;;;;;;;;;4949192;28;20221;-87
2023/05/07 06:59:02;;;;;;;8.00;7.40;;;;;;;;;;4985365;28;20209;-87
2023/05/07 07:01:32;;;;;;;8.27;7.57;;;;;;;;;;4989343;28;20225;-87
2023/05/07 07:04:00;;;;;;;8.03;7.33;;;;;;;;;;4963254;28;20218;-87
2023/05/07 07:06:29;;;;;;;8.07;7.27;;;;;;;;;;4969930;28;20308;-87
2023/05/07 07:08:55;;;;;;;7.73;7.10;;;;;;;;;;4963383;28;20599;-87
2023/05/07 07:11:20;;;;;;;7.97;7.20;;;;;;;;;;4970542;28;20332;-87
2023/05/07 07:13:46;;;;;;;7.87;7.17;;;;;;;;;;4990474;28;20570;-88
2023/05/07 07:16:12;;;;;;;8.37;7.20;;;;;;;;;;4942292;28;20222;-87
2023/05/07 07:18:38;;;;;;;8.13;7.43;;;;;;;;;;4959437;28;20221;-88
2023/05/07 07:21:06;;;;;;;7.80;7.07;;;;;;;;;;4991431;28;20260;-88
2023/05/07 07:23:32;;;;;;;9.17;7.30;;;;;;;;;;4968824;28;20614;-87
2023/05/07 07:25:58;;;;;;;7.67;6.97;;;;;;;;;;4951847;28;20221;-88
2023/05/07 07:28:24;;;;;;;8.13;7.43;;;;;;;;;;4986833;28;20236;-90
2023/05/07 07:30:51;;;;;;;7.83;7.13;;;;;;;;;;4957120;28;20236;-86
2023/05/07 07:33:17;;;;;;;8.67;7.53;;;;;;;;;;4966788;28;20225;-88
2023/05/07 07:35:43;;;;;;;8.47;7.70;;;;;;;;;;4972334;28;20225;-86
2023/05/07 07:38:10;;;;;;;8.20;7.47;;;;;;;;;;4980453;28;20228;-87
2023/05/07 07:40:35;;;;;;;8.93;8.13;;;;;;;;;;4986074;28;20243;-88
2023/05/07 07:43:05;;;;;;;8.60;7.70;;;;;;;;;;4971140;28;20233;-87
2023/05/07 07:45:31;;;;;;;8.40;7.53;;;;;;;;;;4985871;28;20216;-88
2023/05/07 07:47:59;;;;;;;8.17;7.47;;;;;;;;;;4973808;28;20233;-85
2023/05/07 07:50:25;;;;;;;7.63;7.03;;;;;;;;;;4966476;28;20226;-84
2023/05/07 07:52:55;;;;;;;7.60;7.00;;;;;;;;;;4978261;28;20724;-88
2023/05/07 07:55:22;;;;;;;8.87;8.07;;;;;;;;;;4962280;28;20241;-85
2023/05/07 07:57:50;;;;;;;8.00;7.30;;;;;;;;;;4979384;28;20218;-88
2023/05/07 08:00:16;;;;;;;8.83;7.13;;;;;;;;;;4964265;28;20228;-89
2023/05/07 08:02:47;;;;;;;8.43;7.73;;;;;;;;;;4980655;28;20312;-87
2023/05/07 08:05:23;;;;;;;8.50;7.70;;;;;;;;;;4953029;28;20229;-86
2023/05/07 08:08:01;;;;;;;8.27;7.43;;;;;;;;;;4973527;28;20987;-84
2023/05/07 08:10:39;;;;;;;8.50;7.80;;;;;;;;;;4961543;28;20324;-86
2023/05/07 08:13:10;;;;;;;8.70;7.80;;;;;;;;;;4968171;28;20246;-87
2023/05/07 08:15:37;;;;;;;8.13;7.43;;;;;;;;;;4968320;28;20228;-87
2023/05/07 08:18:06;;;;;;;8.50;7.80;;;;;;;;;;4977054;28;20215;-87
2023/05/07 08:20:39;;;;;;;7.73;7.10;;;;;;;;;;4979299;28;20939;-87
2023/05/07 08:23:08;;;;;;;7.87;7.27;;;;;;;;;;4956017;28;20743;-88
2023/05/07 08:25:37;;;;;;;7.87;7.17;;;;;;;;;;4954019;28;20225;-88
2023/05/07 08:28:03;;;;;;;7.53;6.90;;;;;;;;;;4985570;28;20248;-88
2023/05/07 08:30:29;;;;;;;7.57;6.87;;;;;;;;;;4973840;28;20221;-86
2023/05/07 08:32:55;;;;;;;8.27;7.57;;;;;;;;;;4949537;28;20221;-88
2023/05/07 08:35:20;;;;;;;7.20;6.50;;;;;;;;;;4962927;28;20221;-87
2023/05/07 08:37:46;;;;;;;7.30;6.70;;;;;;;;;;4968166;28;20274;-86
2023/05/07 08:40:12;;;;;;;7.70;7.00;;;;;;;;;;4947892;28;20249;-86
2023/05/07 08:42:38;;;;;;;8.23;7.43;;;;;;;;;;4948769;28;20537;-88
2023/05/07 08:45:08;;;;;;;7.40;6.77;;;;;;;;;;4963468;28;20227;-88
2023/05/07 08:47:41;;;;;;;7.70;6.90;;;;;;;;;;4949635;28;20299;-87
2023/05/07 08:50:07;;;;;;;7.57;6.40;;;;;;;;;;4957147;28;20228;-88
2023/05/07 08:52:32;;;;;;;6.83;6.23;;;;;;;;;;4970554;28;20229;-89
2023/05/07 08:55:07;;;;;;;6.77;6.17;;;;;;;;;;4969023;28;20220;-85
2023/05/07 08:57:33;;;;;;;6.13;5.60;;;;;;;;;;4940138;28;20226;-86
2023/05/07 09:00:03;;;;;;;6.50;5.80;;;;;;;;;;4951484;28;20232;-87
2023/05/07 09:02:34;;;;;;;5.73;5.23;;;;;;;;;;4955137;28;20304;-87
2023/05/07 09:05:02;;;;;;;5.40;5.00;;;;;;;;;;4975073;28;20231;-88
2023/05/07 09:07:27;;;;;;;5.73;5.23;;;;;;;;;;4974394;28;20269;-86
2023/05/07 09:09:56;;;;;;;5.00;4.60;;;;;;;;;;4971952;28;20369;-87
2023/05/07 09:12:22;;;;;;;5.70;5.20;;;;;;;;;;4966321;28;20366;-87
2023/05/07 09:14:48;;;;;;;5.47;4.97;;;;;;;;;;4978507;28;20234;-86
2023/05/07 09:17:16;;;;;;;5.67;5.23;;;;;;;;;;4965276;28;20351;-87
2023/05/07 09:19:44;;;;;;;5.50;5.00;;;;;;;;;;4964276;28;20629;-84
2023/05/07 09:22:10;;;;;;;5.33;4.93;;;;;;;;;;4970840;28;20568;-87
2023/05/07 09:24:49;;;;;;;5.23;4.73;;;;;;;;;;4967456;28;20221;-86
2023/05/07 09:27:17;;;;;;;5.17;4.67;;;;;;;;;;4977032;28;20365;-87
2023/05/07 09:29:44;;;;;;;4.80;4.40;;;;;;;;;;4962694;28;20275;-86
2023/05/07 09:32:10;;;;;;;4.70;4.30;;;;;;;;;;4945219;28;20233;-87
2023/05/07 09:34:39;;;;;;;4.53;4.13;;;;;;;;;;4970491;28;20372;-86
2023/05/07 09:37:07;;;;;;;5.10;4.60;;;;;;;;;;4957153;28;20209;-86
2023/05/07 09:39:45;;;;;;;4.50;4.10;;;;;;;;;;4960670;28;20240;-86
2023/05/07 09:42:14;;;;;;;4.87;4.47;;;;;;;;;;4978919;28;20228;-88
2023/05/07 09:44:43;;;;;;;4.72;4.32;;;;;;;;;;4987064;28;20212;-87
2023/05/07 09:47:15;;;;;;;4.30;4.00;;;;;;;;;;4959090;28;20230;-85
2023/05/07 09:49:47;;;;;;;6.30;3.97;;;;;;;;;;4956969;28;20225;-88
2023/05/07 09:52:15;;;;;;;4.40;4.10;;;;;;;;;;4972396;28;20607;-85
2023/05/07 09:54:48;;;;;;;4.00;3.70;;;;;;;;;;4988801;28;20217;-89
2023/05/07 09:57:20;;;;;;;4.35;4.00;;;;;;;;;;4966004;28;20225;-87
2023/05/07 09:59:51;;;;;;;4.35;4.03;;;;;;;;;;4978821;28;20288;-88
2023/05/07 10:02:19;;;;;;;4.35;3.97;;;;;;;;;;4998168;28;20240;-86
2023/05/07 10:04:48;;;;;;;5.25;4.25;;;;;;;;;;4969267;28;20205;-87
2023/05/07 10:07:18;;;;;;;4.47;4.07;;;;;;;;;;4985553;28;20213;-85
2023/05/07 10:09:47;;;;;;;5.15;4.05;;;;;;;;;;4952756;28;20240;-86
2023/05/07 10:12:21;;;;;;;4.28;3.97;;;;;;;;;;4965746;28;20304;-86
2023/05/07 10:14:48;;;;;;;4.18;3.88;;;;;;;;;;4982272;28;20308;-84
2023/05/07 10:17:17;;;;;;;3.83;3.42;;;;;;;;;;4967798;28;20221;-86
2023/05/07 10:19:49;;;;;;;3.63;3.42;;;;;;;;;;4964243;28;20248;-88
2023/05/07 10:22:15;;;;;;;3.92;3.63;;;;;;;;;;4965104;28;20224;-84
2023/05/07 10:24:43;;;;;;;3.58;3.28;;;;;;;;;;4966229;28;20221;-85
2023/05/07 10:27:14;;;;;;;4.18;3.83;;;;;;;;;;4983605;28;20238;-84
2023/05/07 10:29:48;;;;;;;4.45;3.70;;;;;;;;;;4977779;28;20438;-84
2023/05/07 10:32:39;;;;;;;3.55;3.28;;;;;;;;;;4963036;28;20236;-87
2023/05/07 10:35:22;;;;;;;3.85;3.55;;;;;;;;;;4991593;28;20221;-86
2023/05/07 10:37:50;;;;;;;3.42;3.15;;;;;;;;;;4962394;28;20221;-87
2023/05/07 10:40:20;;;;;;;3.40;3.10;;;;;;;;;;4975896;28;20289;-85
2023/05/07 10:43:05;;;;;;;3.53;3.22;;;;;;;;;;4989014;28;20230;-87
2023/05/07 10:45:37;;;;;;;3.67;3.38;;;;;;;;;;4947664;28;20240;-86
2023/05/07 10:48:14;;;;;;;3.58;3.28;;;;;;;;;;4959483;28;20218;-86
2023/05/07 10:50:42;;;;;;;3.65;3.35;;;;;;;;;;4998349;28;20228;-87
2023/05/07 10:53:17;;;;;;;4.75;3.35;;;;;;;;;;4960371;28;20279;-86
2023/05/07 10:55:52;;;;;;;3.88;3.42;;;;;;;;;;4999127;28;20248;-85
2023/05/07 10:58:21;;;;;;;4.93;3.55;;;;;;;;;;4995961;28;20709;-85
2023/05/07 11:00:48;;;;;;;3.70;3.40;;;;;;;;;;4990076;28;20789;-87
2023/05/07 11:03:25;;;;;;;4.20;3.80;;;;;;;;;;4969307;28;20220;-85
2023/05/07 11:06:17;;;;;;;4.05;3.65;;;;;;;;;;4970266;28;20221;-85
2023/05/07 11:08:56;;;;;;;4.05;3.75;;;;;;;;;;4972050;28;20244;-87
2023/05/07 11:11:45;;;;;;;4.18;3.83;;;;;;;;;;4955872;28;20295;-84
2023/05/07 11:14:45;;;;;;;4.40;4.00;;;;;;;;;;4968243;28;20225;-87
2023/05/07 11:17:18;;;;;;;4.57;4.00;;;;;;;;;;4963209;28;20221;-87
2023/05/07 11:19:51;;;;;;;4.00;3.60;;;;;;;;;;4972844;28;20225;-88
2023/05/07 11:22:32;;;;;;;4.45;4.05;;;;;;;;;;4955470;28;20229;-86
2023/05/07 11:25:19;;;;;;;4.70;4.30;;;;;;;;;;4992810;28;20229;-85
2023/05/07 11:27:49;;;;;;;4.18;3.88;;;;;;;;;;4962646;28;20300;-86
2023/05/07 11:30:20;;;;;;;4.80;4.28;;;;;;;;;;4950925;28;20225;-88
2023/05/07 11:32:47;;;;;;;4.65;4.25;;;;;;;;;;4983658;28;20241;-87
2023/05/07 11:35:15;;;;;;;4.40;4.00;;;;;;;;;;4982364;28;20312;-88
2023/05/07 11:37:45;;;;;;;4.97;4.57;;;;;;;;;;4968113;28;20287;-86
2023/05/07 11:40:13;;;;;;;4.97;4.57;;;;;;;;;;4956943;28;20283;-88
2023/05/07 11:42:39;;;;;;;5.20;4.70;;;;;;;;;;4962594;28;20225;-87
2023/05/07 11:45:06;;;;;;;5.13;4.53;;;;;;;;;;4990342;28;20298;-86
2023/05/07 11:47:34;;;;;;;4.22;3.92;;;;;;;;;;4986536;28;20220;-86
2023/05/07 11:50:07;;;;;;;4.40;4.00;;;;;;;;;;4971946;28;20236;-88
2023/05/07 11:52:35;;;;;;;4.03;3.70;;;;;;;;;;4994900;28;20213;-84
2023/05/07 11:55:06;;;;;;;4.55;4.15;;;;;;;;;;4985029;28;20208;-86
2023/05/07 11:57:37;;;;;;;5.07;4.55;;;;;;;;;;4977252;28;20248;-79
2023/05/07 12:00:06;;;;;;;4.80;4.40;;;;;;;;;;4987472;28;20217;-78
2023/05/07 12:02:41;;;;;;;4.30;4.00;;;;;;;;;;4988989;28;20229;-79
2023/05/07 12:05:07;;;;;;;4.70;4.30;;;;;;;;;;4974592;28;20216;-77
2023/05/07 12:07:33;;;;;;;4.30;4.00;;;;;;;;;;4956984;28;20218;-78
2023/05/07 12:10:03;;;;;;;4.43;4.03;;;;;;;;;;4983457;28;20221;-80
2023/05/07 12:12:28;;;;;;;4.30;3.90;;;;;;;;;;5000155;28;20241;-81
2023/05/07 12:14:54;;;;;;;4.07;3.78;;;;;;;;;;4967002;28;20231;-80
2023/05/07 12:17:19;;;;;;;4.13;3.83;;;;;;;;;;4964969;28;20236;-80
2023/05/07 12:19:47;;;;;;;4.00;3.70;;;;;;;;;;4966250;28;20291;-81
2023/05/07 12:22:13;;;;;;;3.88;3.58;;;;;;;;;;4962898;28;20229;-80
2023/05/07 12:24:49;;;;;;;3.95;3.75;;;;;;;;;;4983312;28;20694;-79
2023/05/07 12:27:15;;;;;;;4.00;3.70;;;;;;;;;;4966650;28;20781;-80
2023/05/07 12:29:46;;;;;;;4.05;3.72;;;;;;;;;;4967549;28;20240;-81
2023/05/07 12:32:18;;;;;;;3.80;3.50;;;;;;;;;;4982908;28;20237;-83
2023/05/07 12:34:46;;;;;;;3.60;3.30;;;;;;;;;;4968121;28;20228;-79
2023/05/07 12:37:12;;;;;;;4.40;3.67;;;;;;;;;;5005233;28;20237;-82
2023/05/07 12:39:50;;;;;;;4.07;3.67;;;;;;;;;;4968502;28;20236;-81
2023/05/07 12:42:19;;;;;;;4.22;3.92;;;;;;;;;;4954822;28;20232;-81
2023/05/07 12:44:45;;;;;;;3.90;3.45;;;;;;;;;;4967315;28;21034;-81
2023/05/07 12:47:14;;;;;;;3.72;3.42;;;;;;;;;;4983672;28;20226;-80
2023/05/07 12:49:40;;;;;;;6.93;4.03;;;;;;;;;;4941645;28;20238;-81
2023/05/07 12:52:08;;;;;;;4.38;4.00;;;;;;;;;;4996019;28;20213;-81
2023/05/07 12:54:38;;;;;;;4.32;3.63;;;;;;;;;;4995485;28;20232;-81
2023/05/07 12:57:08;;;;;;;4.10;3.80;;;;;;;;;;4998944;28;20226;-82
2023/05/07 12:59:38;;;;;;;4.47;4.07;;;;;;;;;;4980520;28;20280;-80
2023/05/07 13:02:04;;;;;;;3.90;3.53;;;;;;;;;;4999380;28;20943;-79
2023/05/07 13:04:34;;;;;;;4.32;4.03;;;;;;;;;;4956529;28;20229;-80
2023/05/07 13:07:00;;;;;;;4.60;4.10;;;;;;;;;;4949386;28;20740;-79
2023/05/07 13:09:25;;;;;;;4.40;4.00;;;;;;;;;;4982960;28;20249;-79
2023/05/07 13:11:51;;;;;;;4.35;3.95;;;;;;;;;;4992212;28;21094;-78
2023/05/07 13:14:16;;;;;;;3.83;3.53;;;;;;;;;;4963060;28;20237;-79
2023/05/07 13:16:42;;;;;;;3.70;3.47;;;;;;;;;;4980117;28;20356;-79
2023/05/07 13:19:07;;;;;;;3.55;3.25;;;;;;;;;;4964901;28;20217;-80
2023/05/07 13:21:43;;;;;;;4.10;3.70;;;;;;;;;;4965948;28;20253;-80
2023/05/07 13:24:20;;;;;;;4.05;3.75;;;;;;;;;;4985248;28;20264;-78
2023/05/07 13:26:45;;;;;;;4.40;4.00;;;;;;;;;;4961011;28;20353;-79
2023/05/07 13:29:13;;;;;;;4.13;3.83;;;;;;;;;;4998573;28;20278;-79
2023/05/07 13:31:43;;;;;;;6.32;3.90;;;;;;;;;;4993121;28;20233;-79
2023/05/07 13:34:09;;;;;;;3.92;3.63;;;;;;;;;;4992549;28;20699;-78
2023/05/07 13:36:37;;;;;;;3.65;3.35;;;;;;;;;;4962066;28;20232;-82
2023/05/07 13:39:06;;;;;;;4.13;3.63;;;;;;;;;;4957066;28;20226;-80
2023/05/07 13:41:31;;;;;;;3.92;3.47;;;;;;;;;;4977590;28;20987;-77
2023/05/07 13:43:57;;;;;;;4.03;3.53;;;;;;;;;;4981130;28;20260;-81
2023/05/07 13:46:22;;;;;;;3.50;3.25;;;;;;;;;;4991418;28;20693;-79
2023/05/07 13:48:50;;;;;;;3.47;3.17;;;;;;;;;;4993357;28;20257;-79
2023/05/07 13:51:16;;;;;;;4.32;3.08;;;;;;;;;;4975014;28;20226;-80
2023/05/07 13:53:45;;;;;;;3.40;3.10;;;;;;;;;;4995897;28;20248;-79
2023/05/07 13:56:10;;;;;;;3.33;3.08;;;;;;;;;;4994255;28;20746;-79
2023/05/07 13:58:38;;;;;;;3.42;3.13;;;;;;;;;;4994167;28;20225;-78
2023/05/07 14:01:04;;;;;;;3.00;2.80;;;;;;;;;;4959389;28;20706;-78
2023/05/07 14:03:31;;;;;;;4.50;3.25;;;;;;;;;;4979204;28;20225;-80
2023/05/07 14:05:59;;;;;;;3.38;3.10;;;;;;;;;;4997343;28;20229;-78
2023/05/07 14:08:30;;;;;;;3.63;3.33;;;;;;;;;;4980310;28;20308;-81
2023/05/07 14:10:55;;;;;;;3.47;3.00;;;;;;;;;;4969154;28;20225;-78
2023/05/07 14:13:21;;;;;;;5.18;3.40;;;;;;;;;;4977232;28;20253;-79
2023/05/07 14:15:48;;;;;;;4.38;3.00;;;;;;;;;;4975983;28;20217;-81
2023/05/07 14:18:16;;;;;;;3.60;3.20;;;;;;;;;;4978776;28;20730;-81
2023/05/07 14:20:46;;;;;;;3.22;2.90;;;;;;;;;;4961994;28;20248;-81
2023/05/07 14:23:11;;;;;;;5.18;3.08;;;;;;;;;;4957961;28;20265;-81
2023/05/07 14:25:37;;;;;;;3.40;3.10;;;;;;;;;;4984410;28;20380;-78
2023/05/07 14:28:02;;;;;;;2.97;2.78;;;;;;;;;;4974334;28;20221;-79
2023/05/07 14:30:30;;;;;;;3.17;2.88;;;;;;;;;;4962641;28;20224;-79
2023/05/07 14:33:00;;;;;;;2.80;2.60;;;;;;;;;;4961805;28;20221;-80
2023/05/07 14:35:26;;;;;;;2.83;2.63;;;;;;;;;;4980873;28;20582;-79
2023/05/07 14:37:54;;;;;;;3.05;2.65;;;;;;;;;;4950460;28;20221;-79
2023/05/07 14:40:19;;;;;;;2.85;2.65;;;;;;;;;;4980441;28;20225;-78
2023/05/07 14:42:45;;;;;;;2.85;2.65;;;;;;;;;;4982297;28;20295;-80
2023/05/07 14:45:15;;;;;;;2.55;2.35;;;;;;;;;;4996908;28;20275;-79
2023/05/07 14:47:43;;;;;;;2.80;2.60;;;;;;;;;;4998635;28;20229;-79